createdAt,value
2022-11-04T00:02:25.794Z,12.98
2022-11-04T00:04:56.211Z,12.43
2022-11-04T00:07:42.080Z,13.35
2022-11-04T00:10:10.330Z,10.30
2022-11-04T00:12:38.628Z,7.87
2022-11-04T00:15:25.493Z,7.90
2022-11-04T00:17:54.131Z,6.53
2022-11-04T00:20:38.136Z,6.87
2022-11-04T00:23:24.638Z,6.35
2022-11-04T00:26:10.593Z,7.75
2022-11-04T00:28:44.485Z,4.95
2022-11-04T00:31:30.569Z,6.37
2022-11-04T00:33:59.681Z,5.05
2022-11-04T00:36:28.634Z,6.12
2022-11-04T00:38:56.342Z,4.72
2022-11-04T00:41:28.688Z,6.55
2022-11-04T00:44:05.304Z,5.37
2022-11-04T00:46:35.365Z,4.50
2022-11-04T00:49:02.871Z,5.65
2022-11-04T00:51:31.007Z,3.55
2022-11-04T00:53:58.619Z,5.83
2022-11-04T00:56:26.650Z,4.03
2022-11-04T00:58:54.459Z,4.15
2022-11-04T01:01:22.927Z,4.95
2022-11-04T01:03:52.960Z,2.45
2022-11-04T01:06:22.594Z,4.58
2022-11-04T01:08:52.595Z,4.90
2022-11-04T01:11:20.322Z,3.60
2022-11-04T01:13:53.278Z,4.42
2022-11-04T01:16:21.156Z,3.58
2022-11-04T01:18:49.426Z,3.30
2022-11-04T01:21:17.764Z,3.25
2022-11-04T01:23:45.974Z,3.35
2022-11-04T01:26:16.704Z,3.12
2022-11-04T01:28:45.883Z,3.20
2022-11-04T01:31:16.458Z,3.58
2022-11-04T01:33:44.666Z,5.08
2022-11-04T01:36:15.671Z,4.92
2022-11-04T01:38:44.507Z,5.58
2022-11-04T01:41:27.970Z,4.53
2022-11-04T01:44:01.957Z,4.70
2022-11-04T01:46:33.672Z,7.83
2022-11-04T01:49:05.496Z,6.40
2022-11-04T01:51:37.024Z,7.20
2022-11-04T01:54:07.012Z,8.23
2022-11-04T01:56:35.193Z,8.25
2022-11-04T01:59:06.535Z,7.95
2022-11-04T02:01:35.212Z,6.35
2022-11-04T02:04:20.956Z,7.72
2022-11-04T02:06:50.278Z,7.15
2022-11-04T02:09:19.153Z,8.30
2022-11-04T02:12:05.342Z,7.85
2022-11-04T02:14:34.553Z,8.20
2022-11-04T02:17:21.223Z,9.70
2022-11-04T02:20:19.902Z,8.43
2022-11-04T02:23:08.558Z,11.03
2022-11-04T02:26:10.091Z,13.98
2022-11-04T02:29:08.810Z,9.55
2022-11-04T02:31:44.129Z,9.55
2022-11-04T02:34:36.990Z,10.70
2022-11-04T02:37:18.309Z,9.78
2022-11-04T02:39:58.806Z,10.28
2022-11-04T02:42:33.531Z,7.33
2022-11-04T02:47:44.086Z,6.70
2022-11-04T02:50:33.567Z,10.65
2022-11-04T02:53:17.429Z,7.67
2022-11-04T02:55:48.994Z,5.97
2022-11-04T02:58:19.982Z,7.97
2022-11-04T03:00:51.251Z,5.87
2022-11-04T03:03:22.739Z,7.15
2022-11-04T03:05:53.575Z,8.10
2022-11-04T03:08:31.333Z,6.78
2022-11-04T03:11:05.532Z,7.25
2022-11-04T03:13:36.825Z,9.10
2022-11-04T03:16:09.413Z,4.78
2022-11-04T03:18:41.207Z,8.30
2022-11-04T03:21:11.775Z,7.35
2022-11-04T03:23:40.887Z,6.45
2022-11-04T03:26:15.456Z,12.68
2022-11-04T03:28:46.971Z,9.28
2022-11-04T03:31:24.455Z,8.95
2022-11-04T03:33:54.425Z,10.35
2022-11-04T03:36:23.652Z,12.75
2022-11-04T03:38:53.367Z,10.72
2022-11-04T03:41:33.540Z,15.53
2022-11-04T03:44:01.553Z,11.45
2022-11-04T03:46:29.495Z,8.03
2022-11-04T03:48:59.747Z,10.80
2022-11-04T03:51:27.580Z,10.72
2022-11-04T03:53:57.640Z,12.28
2022-11-04T03:56:37.788Z,9.48
2022-11-04T03:59:09.627Z,9.20
2022-11-04T04:01:53.078Z,11.83
2022-11-04T04:04:33.143Z,11.43
2022-11-04T04:07:07.390Z,15.68
2022-11-04T04:09:41.426Z,13.08
2022-11-04T04:12:21.883Z,13.13
2022-11-04T04:14:52.892Z,11.40
2022-11-04T04:17:39.723Z,14.20
2022-11-04T04:20:20.186Z,13.30
2022-11-04T04:23:00.842Z,13.48
2022-11-04T04:25:50.136Z,12.50
2022-11-04T04:28:19.869Z,13.83
2022-11-04T04:30:48.096Z,13.85
2022-11-04T04:33:21.395Z,13.80
2022-11-04T04:35:55.517Z,15.72
2022-11-04T04:38:44.404Z,15.00
2022-11-04T04:41:47.650Z,11.50
2022-11-04T04:44:47.239Z,14.93
2022-11-04T04:47:32.307Z,14.15
2022-11-04T04:50:01.562Z,15.63
2022-11-04T04:52:35.679Z,12.50
2022-11-04T04:55:05.669Z,15.83
2022-11-04T04:57:33.783Z,13.68
2022-11-04T05:00:01.915Z,17.98
2022-11-04T05:02:29.549Z,19.35
2022-11-04T05:04:59.619Z,16.85
2022-11-04T05:07:28.582Z,14.38
2022-11-04T05:09:56.318Z,12.37
2022-11-04T05:12:25.420Z,15.83
2022-11-04T05:14:56.045Z,16.23
2022-11-04T05:17:24.873Z,11.78
2022-11-04T05:19:52.729Z,16.10
2022-11-04T05:22:20.757Z,17.92
2022-11-04T05:24:48.985Z,12.80
2022-11-04T05:27:17.449Z,14.60
2022-11-04T05:29:47.682Z,17.70
2022-11-04T05:32:15.740Z,13.75
2022-11-04T05:34:43.643Z,17.67
2022-11-04T05:37:12.708Z,14.23
2022-11-04T05:39:41.757Z,12.93
2022-11-04T05:42:09.661Z,16.40
2022-11-04T05:44:37.458Z,14.95
2022-11-04T05:47:05.590Z,16.85
2022-11-04T05:49:33.845Z,14.23
2022-11-04T05:52:02.496Z,19.62
2022-11-04T05:54:30.722Z,20.80
2022-11-04T05:56:59.375Z,15.60
2022-11-04T05:59:27.730Z,16.77
2022-11-04T06:01:55.621Z,17.90
2022-11-04T06:04:23.745Z,14.80
2022-11-04T06:06:51.454Z,13.32
2022-11-04T06:09:19.482Z,14.68
2022-11-04T06:11:47.460Z,15.35
2022-11-04T06:14:18.761Z,19.07
2022-11-04T06:16:45.201Z,15.43
2022-11-04T06:19:16.683Z,15.70
2022-11-04T06:21:45.168Z,14.55
2022-11-04T06:24:14.808Z,17.45
2022-11-04T06:26:42.522Z,20.10
2022-11-04T06:29:17.038Z,17.42
2022-11-04T06:31:45.155Z,15.60
2022-11-04T06:34:13.708Z,13.93
2022-11-04T06:36:42.574Z,24.55
2022-11-04T06:39:12.800Z,14.50
2022-11-04T06:41:42.927Z,20.02
2022-11-04T06:44:10.399Z,15.93
2022-11-04T06:46:40.412Z,19.55
2022-11-04T06:49:14.629Z,15.70
2022-11-04T06:51:42.459Z,14.38
2022-11-04T06:54:10.358Z,15.60
2022-11-04T06:56:38.693Z,16.37
2022-11-04T06:59:06.715Z,16.40
2022-11-04T07:01:36.829Z,22.42
2022-11-04T07:04:07.848Z,21.90
2022-11-04T07:06:38.388Z,23.05
2022-11-04T07:09:05.116Z,23.10
2022-11-04T07:11:33.912Z,14.98
2022-11-04T07:14:03.189Z,13.25
2022-11-04T07:16:31.422Z,7.45
2022-11-04T07:18:59.021Z,6.53
2022-11-04T07:21:26.962Z,8.58
2022-11-04T07:23:57.976Z,8.43
2022-11-04T07:26:25.689Z,6.35
2022-11-04T07:28:53.321Z,5.28
2022-11-04T07:31:25.393Z,4.95
2022-11-04T07:33:54.079Z,2.85
2022-11-04T07:36:21.559Z,4.50
2022-11-04T07:38:49.591Z,2.37
2022-11-04T07:41:21.642Z,6.08
2022-11-04T07:43:53.000Z,3.45
2022-11-04T07:46:20.919Z,4.12
2022-11-04T07:48:48.775Z,2.20
2022-11-04T07:51:18.788Z,2.17
2022-11-04T07:53:46.926Z,2.25
2022-11-04T07:56:14.590Z,4.45
2022-11-04T07:58:45.495Z,0.93
2022-11-04T08:01:16.731Z,1.62
2022-11-04T08:03:44.286Z,2.35
2022-11-04T08:06:14.521Z,0.65
2022-11-04T08:08:43.786Z,1.57
2022-11-04T08:11:17.683Z,1.47
2022-11-04T08:13:45.182Z,1.65
2022-11-04T08:16:18.713Z,1.95
2022-11-04T08:18:47.563Z,1.15
2022-11-04T08:21:15.768Z,0.70
2022-11-04T08:23:44.827Z,0.53
2022-11-04T08:26:16.089Z,1.22
2022-11-04T08:28:46.490Z,0.23
2022-11-04T08:31:18.276Z,0.40
2022-11-04T08:33:46.904Z,0.65
2022-11-04T08:36:18.549Z,0.65
2022-11-04T08:38:46.814Z,1.87
2022-11-04T08:41:16.574Z,0.72
2022-11-04T08:43:44.893Z,0.20
2022-11-04T08:46:14.138Z,0.93
2022-11-04T08:48:42.869Z,1.50
2022-11-04T08:51:20.081Z,2.47
2022-11-04T08:53:47.814Z,0.72
2022-11-04T08:56:24.509Z,1.15
2022-11-04T08:58:52.531Z,0.42
2022-11-04T09:01:21.993Z,1.45
2022-11-04T09:03:52.587Z,1.50
2022-11-04T09:06:26.642Z,1.60
2022-11-04T09:08:59.185Z,1.45
2022-11-04T09:11:27.357Z,4.65
2022-11-04T09:13:54.815Z,1.47
2022-11-04T09:16:22.617Z,0.72
2022-11-04T09:18:50.162Z,2.67
2022-11-04T09:21:20.571Z,1.05
2022-11-04T09:23:48.371Z,1.07
2022-11-04T09:26:17.438Z,1.10
2022-11-04T09:28:45.395Z,1.62
2022-11-04T09:31:16.652Z,2.40
2022-11-04T09:33:44.991Z,1.60
2022-11-04T09:36:13.828Z,2.15
2022-11-04T09:38:48.922Z,1.10
2022-11-04T09:44:12.509Z,0.50
2022-11-04T09:46:40.854Z,0.42
2022-11-04T09:49:13.086Z,0.40
2022-11-04T09:51:57.741Z,0.65
2022-11-04T09:54:23.873Z,0.30
2022-11-04T09:56:54.335Z,0.65
2022-11-04T09:59:28.187Z,0.60
2022-11-04T10:02:05.132Z,0.40
2022-11-04T10:04:51.511Z,2.22
2022-11-04T10:07:26.010Z,1.12
2022-11-04T10:10:15.230Z,0.30
2022-11-04T10:13:15.626Z,0.78
2022-11-04T10:16:03.297Z,0.68
2022-11-04T10:18:57.503Z,2.05
2022-11-04T10:21:31.779Z,0.45
2022-11-04T10:24:15.241Z,0.98
2022-11-04T10:26:50.431Z,1.27
2022-11-04T10:29:29.314Z,0.60
2022-11-04T10:32:03.673Z,1.35
2022-11-04T10:34:38.010Z,0.60
2022-11-04T10:37:09.538Z,0.72
2022-11-04T10:39:43.926Z,0.57
2022-11-04T10:42:18.057Z,1.12
2022-11-04T10:44:46.968Z,1.40
2022-11-04T10:47:44.171Z,3.60
2022-11-04T10:50:29.275Z,0.88
2022-11-04T10:52:58.171Z,1.72
2022-11-04T10:55:32.436Z,1.35
2022-11-04T10:58:04.164Z,3.25
2022-11-04T11:00:38.235Z,1.55
2022-11-04T11:03:34.500Z,0.85
2022-11-04T11:06:24.081Z,2.60
2022-11-04T11:08:57.988Z,1.35
2022-11-04T11:11:45.568Z,2.17
2022-11-04T11:14:23.697Z,1.67
2022-11-04T11:16:51.659Z,1.35
2022-11-04T11:19:22.744Z,0.62
2022-11-04T11:21:53.752Z,0.45
2022-11-04T11:24:27.037Z,0.85
2022-11-04T11:26:58.011Z,1.85
2022-11-04T11:29:32.021Z,0.57
2022-11-04T11:32:01.111Z,1.15
2022-11-04T11:34:32.352Z,0.85
2022-11-04T11:37:03.395Z,1.00
2022-11-04T11:39:36.088Z,1.35
2022-11-04T11:42:10.103Z,0.50
2022-11-04T11:44:43.345Z,0.57
2022-11-04T11:47:29.999Z,0.30
2022-11-04T11:50:19.610Z,0.28
2022-11-04T11:52:49.214Z,1.55
2022-11-04T11:55:23.418Z,0.25
2022-11-04T12:00:52.032Z,0.30
2022-11-04T12:03:25.126Z,0.72
2022-11-04T12:06:23.100Z,0.60
2022-11-04T12:09:16.184Z,1.17
2022-11-04T12:11:36.085Z,0.17
2022-11-04T12:14:13.498Z,0.23
2022-11-04T12:16:45.203Z,0.35
2022-11-04T12:19:45.381Z,0.10
2022-11-04T12:22:22.851Z,0.17
2022-11-04T12:24:57.483Z,0.75
2022-11-04T12:30:14.741Z,0.13
2022-11-04T12:33:04.234Z,0.25
2022-11-04T12:36:01.593Z,0.68
2022-11-04T12:38:38.781Z,0.25
2022-11-04T12:41:52.350Z,0.53
2022-11-04T12:44:13.402Z,0.37
2022-11-04T12:46:53.782Z,0.70
2022-11-04T12:49:46.075Z,0.33
2022-11-04T12:52:35.586Z,0.20
2022-11-04T12:55:44.025Z,0.17
2022-11-04T12:58:30.471Z,0.78
2022-11-04T13:01:05.282Z,0.25
2022-11-04T13:03:37.756Z,0.20
2022-11-04T13:06:17.867Z,0.20
2022-11-04T13:08:54.093Z,0.70
2022-11-04T13:11:25.344Z,1.90
2022-11-04T13:14:07.473Z,0.10
2022-11-04T13:16:40.297Z,0.33
2022-11-04T13:19:23.909Z,0.23
2022-11-04T13:21:52.130Z,0.20
2022-11-04T13:24:32.060Z,0.20
2022-11-04T13:27:03.367Z,0.23
2022-11-04T13:29:34.141Z,0.23
2022-11-04T13:32:22.854Z,0.30
2022-11-04T13:35:00.438Z,0.10
2022-11-04T13:37:34.960Z,0.53
2022-11-04T13:40:22.010Z,0.10
2022-11-04T13:42:58.074Z,0.88
2022-11-04T13:45:29.695Z,0.90
2022-11-04T13:47:59.028Z,0.10
2022-11-04T13:50:39.080Z,0.10
2022-11-04T13:53:12.547Z,0.10
2022-11-04T13:55:49.471Z,1.75
2022-11-04T13:58:24.055Z,0.30
2022-11-04T14:01:13.920Z,0.28
2022-11-04T14:03:56.786Z,0.10
2022-11-04T14:06:53.664Z,0.10
2022-11-04T14:09:39.898Z,0.20
2022-11-04T14:12:20.318Z,0.60
2022-11-04T14:14:52.018Z,0.33
2022-11-04T14:17:38.704Z,0.25
2022-11-04T14:20:13.141Z,0.47
2022-11-04T14:22:56.646Z,1.47
2022-11-04T14:25:37.171Z,0.37
2022-11-04T14:28:12.065Z,0.30
2022-11-04T14:33:23.518Z,0.85
2022-11-04T14:35:57.633Z,0.60
2022-11-04T14:38:29.148Z,3.30
2022-11-04T14:41:27.968Z,2.67
2022-11-04T14:43:58.676Z,0.98
2022-11-04T14:46:29.178Z,1.12
2022-11-04T14:49:02.068Z,0.28
2022-11-04T14:51:36.123Z,0.30
2022-11-04T14:56:34.231Z,1.85
2022-11-04T14:59:07.412Z,2.92
2022-11-04T15:01:39.070Z,2.87
2022-11-04T15:04:12.739Z,1.27
2022-11-04T15:06:54.355Z,5.37
2022-11-04T15:09:25.053Z,7.95
2022-11-04T15:12:27.270Z,1.35
2022-11-04T15:14:56.810Z,2.20
2022-11-04T15:17:28.536Z,0.95
2022-11-04T15:20:02.312Z,3.33
2022-11-04T15:22:30.649Z,1.52
2022-11-04T15:25:02.359Z,1.27
2022-11-04T15:27:30.601Z,0.50
2022-11-04T15:30:00.937Z,2.47
2022-11-04T15:32:29.106Z,2.95
2022-11-04T15:34:58.012Z,1.27
2022-11-04T15:37:26.706Z,3.00
2022-11-04T15:39:59.198Z,2.15
2022-11-04T15:42:40.177Z,0.80
2022-11-04T15:45:39.024Z,2.15
2022-11-04T15:48:25.214Z,1.95
2022-11-04T15:51:08.797Z,2.90
2022-11-04T15:53:40.492Z,7.67
2022-11-04T15:56:08.990Z,1.12
2022-11-04T15:58:36.959Z,0.78
2022-11-04T16:01:04.999Z,0.45
2022-11-04T16:03:32.804Z,0.75
2022-11-04T16:06:04.159Z,0.40
2022-11-04T16:08:32.672Z,2.50
2022-11-04T16:11:16.035Z,1.17
2022-11-04T16:13:44.995Z,2.80
2022-11-04T16:16:23.049Z,4.33
2022-11-04T16:18:59.142Z,5.05
2022-11-04T16:21:33.642Z,7.10
2022-11-04T16:24:04.982Z,2.27
2022-11-04T16:26:38.905Z,1.45
2022-11-04T16:29:12.811Z,1.60
2022-11-04T16:31:42.304Z,1.65
2022-11-04T16:34:13.270Z,2.05
2022-11-04T16:36:40.812Z,0.75
2022-11-04T16:39:09.304Z,0.65
2022-11-04T16:41:39.529Z,1.95
2022-11-04T16:44:11.511Z,3.85
2022-11-04T16:46:40.948Z,1.85
2022-11-04T16:49:10.883Z,1.57
2022-11-04T16:51:38.453Z,3.52
2022-11-04T16:54:06.017Z,4.85
2022-11-04T16:56:34.361Z,4.80
2022-11-04T16:59:01.982Z,6.55
2022-11-04T17:01:29.836Z,2.25
2022-11-04T17:03:57.556Z,3.58
2022-11-04T17:06:25.724Z,0.95
2022-11-04T17:08:56.342Z,1.45
2022-11-04T17:11:24.437Z,0.75
2022-11-04T17:13:52.150Z,1.17
2022-11-04T17:16:28.531Z,0.68
2022-11-04T17:18:53.686Z,10.03
2022-11-04T17:21:23.327Z,5.65
2022-11-04T17:23:54.110Z,3.20
2022-11-04T17:26:21.906Z,1.20
2022-11-04T17:28:50.108Z,3.22
2022-11-04T17:31:19.923Z,4.35
2022-11-04T17:33:48.218Z,2.45
2022-11-04T17:36:18.746Z,1.55
2022-11-04T17:38:47.449Z,0.93
2022-11-04T17:41:36.067Z,0.65
2022-11-04T17:44:05.273Z,1.85
2022-11-04T17:46:34.680Z,0.47
2022-11-04T17:49:06.463Z,0.78
2022-11-04T17:51:34.259Z,4.30
2022-11-04T17:54:02.141Z,1.15
2022-11-04T17:56:29.806Z,4.67
2022-11-04T17:59:01.520Z,1.20
2022-11-04T18:01:29.089Z,2.52
2022-11-04T18:03:56.758Z,1.55
2022-11-04T18:06:25.724Z,0.90
2022-11-04T18:08:54.746Z,3.72
2022-11-04T18:11:42.915Z,7.12
2022-11-04T18:14:16.613Z,3.10
2022-11-04T18:16:45.287Z,0.72
2022-11-04T18:19:14.145Z,1.00
2022-11-04T18:21:41.669Z,0.85
2022-11-04T18:24:09.825Z,0.50
2022-11-04T18:26:37.718Z,1.45
2022-11-04T18:29:08.377Z,1.98
2022-11-04T18:31:38.532Z,0.95
2022-11-04T18:34:09.661Z,1.55
2022-11-04T18:36:39.848Z,2.45
2022-11-04T18:39:09.743Z,2.60
2022-11-04T18:41:39.088Z,3.60
2022-11-04T18:44:18.841Z,2.02
2022-11-04T18:46:47.066Z,1.75
2022-11-04T18:49:16.316Z,1.20
2022-11-04T18:51:44.799Z,1.35
2022-11-04T18:54:13.146Z,3.37
2022-11-04T18:56:42.753Z,1.57
2022-11-04T18:59:15.985Z,0.90
2022-11-04T19:01:44.316Z,0.50
2022-11-04T19:04:14.189Z,2.47
2022-11-04T19:06:44.380Z,0.57
2022-11-04T19:11:45.151Z,0.85
2022-11-04T19:14:15.904Z,0.72
2022-11-04T19:16:43.751Z,1.20
2022-11-04T19:19:16.470Z,1.25
2022-11-04T19:21:44.072Z,1.27
2022-11-04T19:24:12.657Z,1.00
2022-11-04T19:26:41.193Z,1.17
2022-11-04T19:29:09.080Z,4.83
2022-11-04T19:31:36.756Z,6.40
2022-11-04T19:34:05.202Z,4.85
2022-11-04T19:36:33.958Z,6.90
2022-11-04T19:39:01.567Z,22.13
2022-11-04T19:41:47.712Z,5.28
2022-11-04T19:44:18.821Z,4.08
2022-11-04T19:46:47.195Z,5.10
2022-11-04T19:49:15.709Z,5.45
2022-11-04T19:51:44.445Z,6.62
2022-11-04T19:54:12.832Z,5.72
2022-11-04T19:56:40.696Z,7.35
2022-11-04T19:59:09.294Z,5.85
2022-11-04T20:01:37.245Z,4.50
2022-11-04T20:04:05.463Z,5.45
2022-11-04T20:06:36.351Z,7.83
2022-11-04T20:09:07.095Z,7.90
2022-11-04T20:11:38.662Z,7.20
2022-11-04T20:14:08.127Z,7.25
2022-11-04T20:16:47.050Z,3.62
2022-11-04T20:19:19.869Z,4.87
2022-11-04T20:21:45.014Z,4.00
2022-11-04T20:24:13.734Z,5.12
2022-11-04T20:26:44.301Z,5.92
2022-11-04T20:29:12.613Z,6.50
2022-11-04T20:31:41.468Z,3.08
2022-11-04T20:34:11.672Z,1.85
2022-11-04T20:36:40.380Z,1.72
2022-11-04T20:39:17.696Z,1.77
2022-11-04T20:41:46.361Z,1.70
2022-11-04T20:44:16.647Z,1.77
2022-11-04T20:46:46.271Z,1.27
2022-11-04T20:49:17.774Z,6.20
2022-11-04T20:51:53.349Z,4.33
2022-11-04T20:54:17.823Z,3.50
2022-11-04T20:56:55.252Z,1.50
2022-11-04T20:59:25.981Z,1.25
2022-11-04T21:01:54.048Z,2.92
2022-11-04T21:04:22.125Z,0.55
2022-11-04T21:06:51.361Z,2.37
2022-11-04T21:09:21.374Z,1.32
2022-11-04T21:11:50.480Z,2.02
2022-11-04T21:14:19.855Z,2.22
2022-11-04T21:16:48.210Z,1.07
2022-11-04T21:19:16.266Z,1.25
2022-11-04T21:21:44.833Z,1.05
2022-11-04T21:24:14.235Z,1.27
2022-11-04T21:26:42.470Z,1.45
2022-11-04T21:29:13.892Z,0.47
2022-11-04T21:31:43.949Z,0.50
2022-11-04T21:34:11.743Z,0.80
2022-11-04T21:36:40.203Z,1.27
2022-11-04T21:39:11.206Z,0.35
2022-11-04T21:41:39.888Z,0.20
2022-11-04T21:44:10.688Z,0.90
2022-11-04T21:46:38.841Z,0.80
2022-11-04T21:49:09.825Z,5.55
2022-11-04T21:51:37.630Z,4.37
2022-11-04T21:54:07.267Z,5.55
2022-11-04T21:56:35.775Z,1.20
2022-11-04T21:59:04.225Z,0.78
2022-11-04T22:01:32.853Z,4.72
2022-11-04T22:04:01.977Z,1.15
2022-11-04T22:06:35.248Z,0.82
2022-11-04T22:09:05.282Z,0.88
2022-11-04T22:11:37.512Z,1.50
2022-11-04T22:14:08.794Z,0.45
2022-11-04T22:16:38.836Z,1.90
2022-11-04T22:19:09.009Z,1.72
2022-11-04T22:21:40.434Z,0.70
2022-11-04T22:24:11.416Z,0.53
2022-11-04T22:26:40.035Z,0.82
2022-11-04T22:29:07.510Z,1.37
2022-11-04T22:31:38.033Z,0.17
2022-11-04T22:34:06.230Z,2.47
2022-11-04T22:36:34.557Z,0.40
2022-11-04T22:39:03.704Z,1.20
2022-11-04T22:41:33.507Z,0.70
2022-11-04T22:44:01.230Z,1.55
2022-11-04T22:46:31.835Z,0.50
2022-11-04T22:49:02.424Z,0.23
2022-11-04T22:51:32.748Z,0.20
2022-11-04T22:54:07.558Z,0.98
2022-11-04T22:56:32.831Z,0.80
2022-11-04T22:59:02.501Z,0.45
2022-11-04T23:01:32.006Z,3.40
2022-11-04T23:04:00.340Z,0.50
2022-11-04T23:06:27.746Z,0.30
2022-11-04T23:09:00.043Z,0.37
2022-11-04T23:11:45.826Z,0.80
2022-11-04T23:14:32.980Z,1.80
2022-11-04T23:17:19.006Z,1.85
2022-11-04T23:19:46.713Z,0.35
2022-11-04T23:22:32.952Z,1.20
2022-11-04T23:25:06.253Z,7.80
2022-11-04T23:27:54.985Z,0.90
2022-11-04T23:30:24.182Z,2.52
2022-11-04T23:32:54.366Z,0.42
2022-11-04T23:35:55.103Z,0.42
2022-11-04T23:38:24.294Z,0.30
2022-11-04T23:41:12.952Z,0.33
2022-11-04T23:43:40.659Z,0.95
2022-11-04T23:46:30.190Z,2.80
2022-11-04T23:49:14.793Z,0.40
2022-11-04T23:52:00.726Z,0.17
2022-11-04T23:54:46.844Z,0.10
2022-11-04T23:57:37.276Z,0.10
